Cissna Park, Illinois
Current Conditions -  °F | °C
As of 10:50 PM on Saturday 25 Oct 2014 (Local Time) from KTIP Reporting Station
Clear Clear  
Wind Chill: 54°   Ceiling: Unl
Heat Index: 54°   Visibility: 10mi
Dew Point: 40°   Wind: 6mph
Humidity: 61%   Direction: 310°NW
Pressure: 30.01"   Gusts: NA
Location:  40.56°N, 87.89°W
Report Text: KTIP 260350Z AUTO 31005KT 10SM CLR 12/05 A3001 RMK AO2 T01200047
Loading
Personal Weather Stations






























Interactive Weather Map
Tropical Storm Tracking
New forecast layout! Learn more

10-Day Weather Forecast

Advertisements
Track Severe Weather on mobile